sensor_id;sensor_type;location;lat;lon;timestamp;temperature;humidity
70074;DHT22;57445;51.058;3.698;2022-10-31T00:01:31;15.30;95.80
70074;DHT22;57445;51.058;3.698;2022-10-31T00:03:59;15.30;95.70
70074;DHT22;57445;51.058;3.698;2022-10-31T00:06:27;15.20;95.80
70074;DHT22;57445;51.058;3.698;2022-10-31T00:08:57;15.20;95.90
70074;DHT22;57445;51.058;3.698;2022-10-31T00:11:26;15.30;95.90
70074;DHT22;57445;51.058;3.698;2022-10-31T00:13:54;15.20;96.00
70074;DHT22;57445;51.058;3.698;2022-10-31T00:16:24;15.10;96.00
70074;DHT22;57445;51.058;3.698;2022-10-31T00:18:53;15.20;95.90
70074;DHT22;57445;51.058;3.698;2022-10-31T00:21:26;15.20;96.00
70074;DHT22;57445;51.058;3.698;2022-10-31T00:23:59;15.40;96.20
70074;DHT22;57445;51.058;3.698;2022-10-31T00:26:29;15.10;96.10
70074;DHT22;57445;51.058;3.698;2022-10-31T00:29:02;15.10;96.00
70074;DHT22;57445;51.058;3.698;2022-10-31T00:31:35;15.10;96.10
70074;DHT22;57445;51.058;3.698;2022-10-31T00:34:02;15.00;96.10
70074;DHT22;57445;51.058;3.698;2022-10-31T00:36:35;15.00;96.30
70074;DHT22;57445;51.058;3.698;2022-10-31T00:39:02;15.00;96.30
70074;DHT22;57445;51.058;3.698;2022-10-31T00:41:33;14.90;96.50
70074;DHT22;57445;51.058;3.698;2022-10-31T00:44:02;14.90;96.80
70074;DHT22;57445;51.058;3.698;2022-10-31T00:46:30;14.80;96.70
70074;DHT22;57445;51.058;3.698;2022-10-31T00:48:57;14.80;96.60
70074;DHT22;57445;51.058;3.698;2022-10-31T00:51:25;14.80;96.70
70074;DHT22;57445;51.058;3.698;2022-10-31T00:53:53;14.80;96.80
70074;DHT22;57445;51.058;3.698;2022-10-31T00:56:21;14.80;96.70
70074;DHT22;57445;51.058;3.698;2022-10-31T00:58:51;14.90;96.50
70074;DHT22;57445;51.058;3.698;2022-10-31T01:01:19;15.00;96.30
70074;DHT22;57445;51.058;3.698;2022-10-31T01:03:47;14.90;96.30
70074;DHT22;57445;51.058;3.698;2022-10-31T01:06:14;15.10;96.60
70074;DHT22;57445;51.058;3.698;2022-10-31T01:08:42;14.80;96.60
70074;DHT22;57445;51.058;3.698;2022-10-31T01:11:12;14.80;96.60
70074;DHT22;57445;51.058;3.698;2022-10-31T01:13:40;14.80;96.50
70074;DHT22;57445;51.058;3.698;2022-10-31T01:16:15;14.70;96.60
70074;DHT22;57445;51.058;3.698;2022-10-31T01:18:44;14.70;96.70
70074;DHT22;57445;51.058;3.698;2022-10-31T01:21:14;14.70;96.80
70074;DHT22;57445;51.058;3.698;2022-10-31T01:23:46;14.80;96.60
70074;DHT22;57445;51.058;3.698;2022-10-31T01:26:21;14.70;96.60
70074;DHT22;57445;51.058;3.698;2022-10-31T01:28:51;14.70;96.90
70074;DHT22;57445;51.058;3.698;2022-10-31T01:31:27;14.50;97.00
70074;DHT22;57445;51.058;3.698;2022-10-31T01:33:55;14.60;97.00
70074;DHT22;57445;51.058;3.698;2022-10-31T01:36:27;14.80;96.60
70074;DHT22;57445;51.058;3.698;2022-10-31T01:38:57;14.70;96.60
70074;DHT22;57445;51.058;3.698;2022-10-31T01:41:31;14.50;96.90
70074;DHT22;57445;51.058;3.698;2022-10-31T01:44:01;14.60;96.90
70074;DHT22;57445;51.058;3.698;2022-10-31T01:46:37;14.50;97.00
70074;DHT22;57445;51.058;3.698;2022-10-31T01:49:11;14.80;96.80
70074;DHT22;57445;51.058;3.698;2022-10-31T01:51:44;14.50;96.90
70074;DHT22;57445;51.058;3.698;2022-10-31T01:54:18;14.50;97.00
70074;DHT22;57445;51.058;3.698;2022-10-31T01:56:49;14.60;97.00
70074;DHT22;57445;51.058;3.698;2022-10-31T01:59:24;14.50;97.00
70074;DHT22;57445;51.058;3.698;2022-10-31T02:01:54;14.50;97.10
70074;DHT22;57445;51.058;3.698;2022-10-31T02:04:27;14.40;97.20
70074;DHT22;57445;51.058;3.698;2022-10-31T02:07:01;14.40;97.20
70074;DHT22;57445;51.058;3.698;2022-10-31T02:09:34;14.30;97.30
70074;DHT22;57445;51.058;3.698;2022-10-31T02:12:09;14.40;97.00
70074;DHT22;57445;51.058;3.698;2022-10-31T02:14:37;14.30;97.30
70074;DHT22;57445;51.058;3.698;2022-10-31T02:17:07;14.20;97.50
70074;DHT22;57445;51.058;3.698;2022-10-31T02:19:41;14.30;97.70
70074;DHT22;57445;51.058;3.698;2022-10-31T02:22:13;14.20;97.70
70074;DHT22;57445;51.058;3.698;2022-10-31T02:24:57;13.90;98.20
70074;DHT22;57445;51.058;3.698;2022-10-31T02:27:53;14.20;98.20
70074;DHT22;57445;51.058;3.698;2022-10-31T02:30:28;14.20;97.90
70074;DHT22;57445;51.058;3.698;2022-10-31T02:33:10;14.20;97.80
70074;DHT22;57445;51.058;3.698;2022-10-31T02:35:53;14.30;97.70
70074;DHT22;57445;51.058;3.698;2022-10-31T02:38:29;14.30;97.60
70074;DHT22;57445;51.058;3.698;2022-10-31T02:41:03;14.20;97.70
70074;DHT22;57445;51.058;3.698;2022-10-31T02:43:36;14.10;97.90
70074;DHT22;57445;51.058;3.698;2022-10-31T02:46:13;14.40;97.70
70074;DHT22;57445;51.058;3.698;2022-10-31T02:48:44;14.30;97.50
70074;DHT22;57445;51.058;3.698;2022-10-31T02:51:13;14.30;97.40
70074;DHT22;57445;51.058;3.698;2022-10-31T02:53:42;14.40;97.40
70074;DHT22;57445;51.058;3.698;2022-10-31T02:56:13;14.30;97.40
70074;DHT22;57445;51.058;3.698;2022-10-31T02:58:44;14.30;97.30
70074;DHT22;57445;51.058;3.698;2022-10-31T03:04:16;14.10;97.60
70074;DHT22;57445;51.058;3.698;2022-10-31T03:06:54;14.20;97.70
70074;DHT22;57445;51.058;3.698;2022-10-31T03:09:30;14.10;97.70
70074;DHT22;57445;51.058;3.698;2022-10-31T03:12:07;14.20;97.40
70074;DHT22;57445;51.058;3.698;2022-10-31T03:14:42;14.10;97.50
70074;DHT22;57445;51.058;3.698;2022-10-31T03:17:18;14.10;97.60
70074;DHT22;57445;51.058;3.698;2022-10-31T03:19:56;14.00;97.70
70074;DHT22;57445;51.058;3.698;2022-10-31T03:22:31;13.90;98.00
70074;DHT22;57445;51.058;3.698;2022-10-31T03:25:06;13.90;98.00
70074;DHT22;57445;51.058;3.698;2022-10-31T03:27:36;14.00;97.90
70074;DHT22;57445;51.058;3.698;2022-10-31T03:30:06;14.10;97.70
70074;DHT22;57445;51.058;3.698;2022-10-31T03:32:39;14.30;97.30
70074;DHT22;57445;51.058;3.698;2022-10-31T03:35:14;14.50;96.90
70074;DHT22;57445;51.058;3.698;2022-10-31T03:37:44;14.60;96.60
70074;DHT22;57445;51.058;3.698;2022-10-31T03:40:14;14.40;96.80
70074;DHT22;57445;51.058;3.698;2022-10-31T03:42:53;14.50;96.80
70074;DHT22;57445;51.058;3.698;2022-10-31T03:45:23;14.40;97.20
70074;DHT22;57445;51.058;3.698;2022-10-31T03:48:00;14.30;97.30
70074;DHT22;57445;51.058;3.698;2022-10-31T03:50:40;14.20;97.60
70074;DHT22;57445;51.058;3.698;2022-10-31T03:53:15;14.30;97.80
70074;DHT22;57445;51.058;3.698;2022-10-31T03:55:49;13.90;97.90
70074;DHT22;57445;51.058;3.698;2022-10-31T03:58:23;14.00;97.90
70074;DHT22;57445;51.058;3.698;2022-10-31T04:00:52;14.10;98.00
70074;DHT22;57445;51.058;3.698;2022-10-31T04:03:26;14.20;97.70
70074;DHT22;57445;51.058;3.698;2022-10-31T04:05:59;14.10;97.50
70074;DHT22;57445;51.058;3.698;2022-10-31T04:08:31;14.10;97.60
70074;DHT22;57445;51.058;3.698;2022-10-31T04:11:01;14.00;97.70
70074;DHT22;57445;51.058;3.698;2022-10-31T04:13:32;13.90;98.00
70074;DHT22;57445;51.058;3.698;2022-10-31T04:16:07;13.90;98.00
70074;DHT22;57445;51.058;3.698;2022-10-31T04:18:35;14.10;97.70
70074;DHT22;57445;51.058;3.698;2022-10-31T04:21:08;14.10;97.60
70074;DHT22;57445;51.058;3.698;2022-10-31T04:23:37;14.10;97.40
70074;DHT22;57445;51.058;3.698;2022-10-31T04:26:05;14.10;97.40
70074;DHT22;57445;51.058;3.698;2022-10-31T04:28:33;14.10;97.50
70074;DHT22;57445;51.058;3.698;2022-10-31T04:31:01;14.00;97.50
70074;DHT22;57445;51.058;3.698;2022-10-31T04:33:33;14.10;97.50
70074;DHT22;57445;51.058;3.698;2022-10-31T04:36:01;14.10;97.50
70074;DHT22;57445;51.058;3.698;2022-10-31T04:38:34;14.00;97.50
70074;DHT22;57445;51.058;3.698;2022-10-31T04:41:02;14.10;97.70
70074;DHT22;57445;51.058;3.698;2022-10-31T04:43:30;14.10;97.50
70074;DHT22;57445;51.058;3.698;2022-10-31T04:45:58;14.10;97.50
70074;DHT22;57445;51.058;3.698;2022-10-31T04:48:26;14.00;97.50
70074;DHT22;57445;51.058;3.698;2022-10-31T04:50:58;13.90;97.60
70074;DHT22;57445;51.058;3.698;2022-10-31T04:53:26;13.90;97.60
70074;DHT22;57445;51.058;3.698;2022-10-31T04:55:57;13.90;97.60
70074;DHT22;57445;51.058;3.698;2022-10-31T04:58:25;13.90;97.90
70074;DHT22;57445;51.058;3.698;2022-10-31T05:00:57;13.80;97.70
70074;DHT22;57445;51.058;3.698;2022-10-31T05:03:25;13.80;97.70
70074;DHT22;57445;51.058;3.698;2022-10-31T05:05:53;13.80;97.70
70074;DHT22;57445;51.058;3.698;2022-10-31T05:08:20;13.80;97.60
70074;DHT22;57445;51.058;3.698;2022-10-31T05:10:48;13.80;97.50
70074;DHT22;57445;51.058;3.698;2022-10-31T05:13:22;13.70;97.60
70074;DHT22;57445;51.058;3.698;2022-10-31T05:15:54;13.70;97.80
70074;DHT22;57445;51.058;3.698;2022-10-31T05:18:22;13.60;97.90
70074;DHT22;57445;51.058;3.698;2022-10-31T05:20:50;13.60;97.90
70074;DHT22;57445;51.058;3.698;2022-10-31T05:23:23;13.60;97.80
70074;DHT22;57445;51.058;3.698;2022-10-31T05:25:51;13.60;97.70
70074;DHT22;57445;51.058;3.698;2022-10-31T05:28:25;13.60;97.70
70074;DHT22;57445;51.058;3.698;2022-10-31T05:30:52;13.60;97.70
70074;DHT22;57445;51.058;3.698;2022-10-31T05:33:21;13.40;97.60
70074;DHT22;57445;51.058;3.698;2022-10-31T05:35:54;13.60;97.90
70074;DHT22;57445;51.058;3.698;2022-10-31T05:38:21;13.40;97.90
70074;DHT22;57445;51.058;3.698;2022-10-31T05:40:49;13.40;97.80
70074;DHT22;57445;51.058;3.698;2022-10-31T05:43:24;13.50;97.70
70074;DHT22;57445;51.058;3.698;2022-10-31T05:45:54;13.50;97.60
70074;DHT22;57445;51.058;3.698;2022-10-31T05:48:23;13.50;97.60
70074;DHT22;57445;51.058;3.698;2022-10-31T05:50:50;13.40;97.60
70074;DHT22;57445;51.058;3.698;2022-10-31T05:53:18;13.40;97.70
70074;DHT22;57445;51.058;3.698;2022-10-31T05:55:46;13.40;97.80
70074;DHT22;57445;51.058;3.698;2022-10-31T05:58:14;13.60;97.60
70074;DHT22;57445;51.058;3.698;2022-10-31T06:00:42;13.50;97.60
70074;DHT22;57445;51.058;3.698;2022-10-31T06:03:12;13.70;97.70
70074;DHT22;57445;51.058;3.698;2022-10-31T06:05:40;13.50;97.80
70074;DHT22;57445;51.058;3.698;2022-10-31T06:08:08;13.40;97.80
70074;DHT22;57445;51.058;3.698;2022-10-31T06:10:36;13.30;98.10
70074;DHT22;57445;51.058;3.698;2022-10-31T06:13:04;13.30;98.20
70074;DHT22;57445;51.058;3.698;2022-10-31T06:15:37;13.20;98.70
70074;DHT22;57445;51.058;3.698;2022-10-31T06:18:06;13.20;98.80
70074;DHT22;57445;51.058;3.698;2022-10-31T06:20:35;13.30;98.80
70074;DHT22;57445;51.058;3.698;2022-10-31T06:23:08;13.40;98.70
70074;DHT22;57445;51.058;3.698;2022-10-31T06:25:37;13.70;98.50
70074;DHT22;57445;51.058;3.698;2022-10-31T06:28:05;13.90;98.10
70074;DHT22;57445;51.058;3.698;2022-10-31T06:30:38;14.20;97.80
70074;DHT22;57445;51.058;3.698;2022-10-31T06:33:13;14.20;97.60
70074;DHT22;57445;51.058;3.698;2022-10-31T06:35:46;14.30;97.50
70074;DHT22;57445;51.058;3.698;2022-10-31T06:38:14;14.20;97.50
70074;DHT22;57445;51.058;3.698;2022-10-31T06:40:41;14.30;97.30
70074;DHT22;57445;51.058;3.698;2022-10-31T06:43:10;14.70;97.30
70074;DHT22;57445;51.058;3.698;2022-10-31T06:45:40;14.40;97.20
70074;DHT22;57445;51.058;3.698;2022-10-31T06:48:08;14.40;97.20
70074;DHT22;57445;51.058;3.698;2022-10-31T06:50:36;14.40;97.20
70074;DHT22;57445;51.058;3.698;2022-10-31T06:53:06;14.50;97.20
70074;DHT22;57445;51.058;3.698;2022-10-31T06:55:41;14.40;97.30
70074;DHT22;57445;51.058;3.698;2022-10-31T06:58:10;14.50;97.20
70074;DHT22;57445;51.058;3.698;2022-10-31T07:00:38;14.60;97.00
70074;DHT22;57445;51.058;3.698;2022-10-31T07:03:11;14.80;96.60
70074;DHT22;57445;51.058;3.698;2022-10-31T07:05:46;15.00;96.30
70074;DHT22;57445;51.058;3.698;2022-10-31T07:08:15;14.90;96.20
70074;DHT22;57445;51.058;3.698;2022-10-31T07:10:51;15.00;96.20
70074;DHT22;57445;51.058;3.698;2022-10-31T07:13:19;15.00;96.10
70074;DHT22;57445;51.058;3.698;2022-10-31T07:15:52;15.00;96.30
70074;DHT22;57445;51.058;3.698;2022-10-31T07:18:20;15.10;96.10
70074;DHT22;57445;51.058;3.698;2022-10-31T07:20:53;15.10;95.90
70074;DHT22;57445;51.058;3.698;2022-10-31T07:23:23;15.20;95.80
70074;DHT22;57445;51.058;3.698;2022-10-31T07:25:55;15.70;95.80
70074;DHT22;57445;51.058;3.698;2022-10-31T07:28:23;15.30;95.80
70074;DHT22;57445;51.058;3.698;2022-10-31T07:30:52;15.30;95.70
70074;DHT22;57445;51.058;3.698;2022-10-31T07:33:23;15.10;95.70
70074;DHT22;57445;51.058;3.698;2022-10-31T07:35:54;15.30;95.80
70074;DHT22;57445;51.058;3.698;2022-10-31T07:38:23;15.30;95.80
70074;DHT22;57445;51.058;3.698;2022-10-31T07:40:53;15.50;95.60
70074;DHT22;57445;51.058;3.698;2022-10-31T07:43:22;15.60;95.40
70074;DHT22;57445;51.058;3.698;2022-10-31T07:45:51;15.70;95.30
70074;DHT22;57445;51.058;3.698;2022-10-31T07:48:19;15.70;95.10
70074;DHT22;57445;51.058;3.698;2022-10-31T07:50:47;15.80;95.00
70074;DHT22;57445;51.058;3.698;2022-10-31T07:53:17;15.80;94.80
70074;DHT22;57445;51.058;3.698;2022-10-31T07:55:47;15.80;94.70
70074;DHT22;57445;51.058;3.698;2022-10-31T07:58:16;15.90;94.60
70074;DHT22;57445;51.058;3.698;2022-10-31T08:00:46;15.80;94.50
70074;DHT22;57445;51.058;3.698;2022-10-31T08:03:19;16.00;94.20
70074;DHT22;57445;51.058;3.698;2022-10-31T08:05:51;15.90;94.30
70074;DHT22;57445;51.058;3.698;2022-10-31T08:08:19;15.90;94.40
70074;DHT22;57445;51.058;3.698;2022-10-31T08:10:48;15.80;94.50
70074;DHT22;57445;51.058;3.698;2022-10-31T08:13:16;15.80;94.40
70074;DHT22;57445;51.058;3.698;2022-10-31T08:15:44;15.80;94.40
70074;DHT22;57445;51.058;3.698;2022-10-31T08:18:16;15.80;94.30
70074;DHT22;57445;51.058;3.698;2022-10-31T08:20:44;15.90;94.20
70074;DHT22;57445;51.058;3.698;2022-10-31T08:23:12;16.00;94.10
70074;DHT22;57445;51.058;3.698;2022-10-31T08:25:40;16.10;93.80
70074;DHT22;57445;51.058;3.698;2022-10-31T08:28:11;16.20;93.80
70074;DHT22;57445;51.058;3.698;2022-10-31T08:30:40;16.10;93.80
70074;DHT22;57445;51.058;3.698;2022-10-31T08:33:10;16.00;94.00
70074;DHT22;57445;51.058;3.698;2022-10-31T08:35:39;16.00;94.10
70074;DHT22;57445;51.058;3.698;2022-10-31T08:38:08;16.00;94.10
70074;DHT22;57445;51.058;3.698;2022-10-31T08:40:37;16.10;94.00
70074;DHT22;57445;51.058;3.698;2022-10-31T08:43:13;16.00;94.20
70074;DHT22;57445;51.058;3.698;2022-10-31T08:45:42;16.00;94.30
70074;DHT22;57445;51.058;3.698;2022-10-31T08:48:12;16.30;94.50
70074;DHT22;57445;51.058;3.698;2022-10-31T08:50:40;16.10;94.30
70074;DHT22;57445;51.058;3.698;2022-10-31T08:53:14;16.00;94.50
70074;DHT22;57445;51.058;3.698;2022-10-31T08:55:43;16.20;94.10
70074;DHT22;57445;51.058;3.698;2022-10-31T08:58:14;16.40;93.90
70074;DHT22;57445;51.058;3.698;2022-10-31T09:00:42;16.50;93.80
70074;DHT22;57445;51.058;3.698;2022-10-31T09:03:12;16.70;93.50
70074;DHT22;57445;51.058;3.698;2022-10-31T09:05:40;16.90;93.30
70074;DHT22;57445;51.058;3.698;2022-10-31T09:08:08;16.90;93.00
70074;DHT22;57445;51.058;3.698;2022-10-31T09:10:41;17.10;92.80
70074;DHT22;57445;51.058;3.698;2022-10-31T09:13:16;17.20;92.60
70074;DHT22;57445;51.058;3.698;2022-10-31T09:15:48;17.10;92.90
70074;DHT22;57445;51.058;3.698;2022-10-31T09:18:17;17.20;92.70
70074;DHT22;57445;51.058;3.698;2022-10-31T09:20:46;17.40;92.30
70074;DHT22;57445;51.058;3.698;2022-10-31T09:23:16;17.50;92.10
70074;DHT22;57445;51.058;3.698;2022-10-31T09:25:45;17.50;92.20
70074;DHT22;57445;51.058;3.698;2022-10-31T09:28:17;17.60;92.30
70074;DHT22;57445;51.058;3.698;2022-10-31T09:30:47;17.50;92.20
70074;DHT22;57445;51.058;3.698;2022-10-31T09:33:20;17.40;92.50
70074;DHT22;57445;51.058;3.698;2022-10-31T09:35:51;17.30;92.70
70074;DHT22;57445;51.058;3.698;2022-10-31T09:38:23;17.30;92.60
70074;DHT22;57445;51.058;3.698;2022-10-31T09:40:56;17.20;92.90
70074;DHT22;57445;51.058;3.698;2022-10-31T09:43:32;17.40;92.80
70074;DHT22;57445;51.058;3.698;2022-10-31T09:46:09;17.50;92.60
70074;DHT22;57445;51.058;3.698;2022-10-31T09:49:17;17.60;92.60
70074;DHT22;57445;51.058;3.698;2022-10-31T09:51:55;17.60;92.50
70074;DHT22;57445;51.058;3.698;2022-10-31T09:54:29;17.80;92.20
70074;DHT22;57445;51.058;3.698;2022-10-31T09:57:00;17.90;91.90
70074;DHT22;57445;51.058;3.698;2022-10-31T09:59:36;17.90;92.00
70074;DHT22;57445;51.058;3.698;2022-10-31T10:02:06;18.00;92.00
70074;DHT22;57445;51.058;3.698;2022-10-31T10:04:43;18.00;92.00
70074;DHT22;57445;51.058;3.698;2022-10-31T10:07:19;18.10;91.90
70074;DHT22;57445;51.058;3.698;2022-10-31T10:09:49;18.20;91.80
70074;DHT22;57445;51.058;3.698;2022-10-31T10:12:21;18.30;91.80
70074;DHT22;57445;51.058;3.698;2022-10-31T10:15:24;18.40;91.50
70074;DHT22;57445;51.058;3.698;2022-10-31T10:17:58;18.50;91.10
70074;DHT22;57445;51.058;3.698;2022-10-31T10:20:37;18.60;90.90
70074;DHT22;57445;51.058;3.698;2022-10-31T10:23:22;18.50;91.00
70074;DHT22;57445;51.058;3.698;2022-10-31T10:25:57;18.50;91.20
70074;DHT22;57445;51.058;3.698;2022-10-31T10:28:30;18.40;91.50
70074;DHT22;57445;51.058;3.698;2022-10-31T10:31:14;18.50;91.60
70074;DHT22;57445;51.058;3.698;2022-10-31T10:33:48;18.50;91.40
70074;DHT22;57445;51.058;3.698;2022-10-31T10:36:24;18.60;91.20
70074;DHT22;57445;51.058;3.698;2022-10-31T10:38:55;18.80;90.90
70074;DHT22;57445;51.058;3.698;2022-10-31T10:41:26;19.00;90.50
70074;DHT22;57445;51.058;3.698;2022-10-31T10:43:59;19.10;90.60
70074;DHT22;57445;51.058;3.698;2022-10-31T10:46:34;19.20;90.30
70074;DHT22;57445;51.058;3.698;2022-10-31T10:49:26;19.10;90.40
70074;DHT22;57445;51.058;3.698;2022-10-31T10:51:59;19.20;90.10
70074;DHT22;57445;51.058;3.698;2022-10-31T10:54:56;19.00;90.40
70074;DHT22;57445;51.058;3.698;2022-10-31T10:57:43;18.80;90.70
70074;DHT22;57445;51.058;3.698;2022-10-31T11:00:19;18.90;90.50
70074;DHT22;57445;51.058;3.698;2022-10-31T11:02:49;18.90;90.60
70074;DHT22;57445;51.058;3.698;2022-10-31T11:05:23;18.80;90.50
70074;DHT22;57445;51.058;3.698;2022-10-31T11:07:51;18.70;90.70
70074;DHT22;57445;51.058;3.698;2022-10-31T11:10:20;18.60;90.90
70074;DHT22;57445;51.058;3.698;2022-10-31T11:13:00;18.70;90.90
70074;DHT22;57445;51.058;3.698;2022-10-31T11:15:37;18.70;90.90
70074;DHT22;57445;51.058;3.698;2022-10-31T11:18:20;18.90;90.70
70074;DHT22;57445;51.058;3.698;2022-10-31T11:20:54;19.20;90.40
70074;DHT22;57445;51.058;3.698;2022-10-31T11:23:24;19.20;90.50
70074;DHT22;57445;51.058;3.698;2022-10-31T11:25:56;19.40;90.10
70074;DHT22;57445;51.058;3.698;2022-10-31T11:28:25;19.50;89.60
70074;DHT22;57445;51.058;3.698;2022-10-31T11:31:05;19.70;89.00
70074;DHT22;57445;51.058;3.698;2022-10-31T11:33:44;19.60;89.80
70074;DHT22;57445;51.058;3.698;2022-10-31T11:36:18;19.70;89.00
70074;DHT22;57445;51.058;3.698;2022-10-31T11:38:46;19.80;89.30
70074;DHT22;57445;51.058;3.698;2022-10-31T11:41:16;19.70;88.60
70074;DHT22;57445;51.058;3.698;2022-10-31T11:43:50;19.50;90.10
70074;DHT22;57445;51.058;3.698;2022-10-31T11:46:26;19.50;90.20
70074;DHT22;57445;51.058;3.698;2022-10-31T11:48:58;19.80;89.60
70074;DHT22;57445;51.058;3.698;2022-10-31T11:51:28;20.00;88.90
70074;DHT22;57445;51.058;3.698;2022-10-31T11:53:58;20.20;88.20
70074;DHT22;57445;51.058;3.698;2022-10-31T11:56:37;20.30;87.20
70074;DHT22;57445;51.058;3.698;2022-10-31T11:59:16;20.30;86.80
70074;DHT22;57445;51.058;3.698;2022-10-31T12:01:51;20.30;87.40
70074;DHT22;57445;51.058;3.698;2022-10-31T12:04:28;20.20;88.00
70074;DHT22;57445;51.058;3.698;2022-10-31T12:06:57;20.20;88.60
70074;DHT22;57445;51.058;3.698;2022-10-31T12:09:27;20.20;88.50
70074;DHT22;57445;51.058;3.698;2022-10-31T12:12:10;20.20;88.50
70074;DHT22;57445;51.058;3.698;2022-10-31T12:14:53;20.10;89.20
70074;DHT22;57445;51.058;3.698;2022-10-31T12:17:25;20.30;88.10
70074;DHT22;57445;51.058;3.698;2022-10-31T12:20:03;20.20;88.30
70074;DHT22;57445;51.058;3.698;2022-10-31T12:22:39;20.30;87.90
70074;DHT22;57445;51.058;3.698;2022-10-31T12:25:29;20.50;87.50
70074;DHT22;57445;51.058;3.698;2022-10-31T12:28:29;20.50;87.10
70074;DHT22;57445;51.058;3.698;2022-10-31T12:31:14;20.50;87.00
70074;DHT22;57445;51.058;3.698;2022-10-31T12:33:57;20.30;87.20
70074;DHT22;57445;51.058;3.698;2022-10-31T12:36:54;20.30;88.20
70074;DHT22;57445;51.058;3.698;2022-10-31T12:39:40;20.30;88.20
70074;DHT22;57445;51.058;3.698;2022-10-31T12:42:18;20.40;89.10
70074;DHT22;57445;51.058;3.698;2022-10-31T12:45:05;20.20;89.30
70074;DHT22;57445;51.058;3.698;2022-10-31T12:48:10;20.10;89.50
70074;DHT22;57445;51.058;3.698;2022-10-31T12:50:50;20.30;88.80
70074;DHT22;57445;51.058;3.698;2022-10-31T12:53:31;20.50;88.10
70074;DHT22;57445;51.058;3.698;2022-10-31T12:56:11;20.40;88.60
70074;DHT22;57445;51.058;3.698;2022-10-31T12:58:46;20.30;89.10
70074;DHT22;57445;51.058;3.698;2022-10-31T13:01:18;20.50;89.80
70074;DHT22;57445;51.058;3.698;2022-10-31T13:03:55;20.20;89.30
70074;DHT22;57445;51.058;3.698;2022-10-31T13:06:36;20.30;89.10
70074;DHT22;57445;51.058;3.698;2022-10-31T13:09:10;20.30;89.60
70074;DHT22;57445;51.058;3.698;2022-10-31T13:11:49;20.00;89.70
70074;DHT22;57445;51.058;3.698;2022-10-31T13:14:25;20.00;90.00
70074;DHT22;57445;51.058;3.698;2022-10-31T13:16:55;20.10;89.80
70074;DHT22;57445;51.058;3.698;2022-10-31T13:19:31;20.10;90.00
70074;DHT22;57445;51.058;3.698;2022-10-31T13:22:05;19.60;90.70
70074;DHT22;57445;51.058;3.698;2022-10-31T13:24:38;19.80;90.70
70074;DHT22;57445;51.058;3.698;2022-10-31T13:27:14;20.00;90.30
70074;DHT22;57445;51.058;3.698;2022-10-31T13:29:53;20.00;90.50
70074;DHT22;57445;51.058;3.698;2022-10-31T13:32:37;19.70;90.70
70074;DHT22;57445;51.058;3.698;2022-10-31T13:35:16;19.90;90.40
70074;DHT22;57445;51.058;3.698;2022-10-31T13:37:51;20.00;90.20
70074;DHT22;57445;51.058;3.698;2022-10-31T13:40:33;20.00;90.30
70074;DHT22;57445;51.058;3.698;2022-10-31T13:43:12;19.90;90.30
70074;DHT22;57445;51.058;3.698;2022-10-31T13:45:49;19.50;91.10
70074;DHT22;57445;51.058;3.698;2022-10-31T13:48:39;19.50;91.10
70074;DHT22;57445;51.058;3.698;2022-10-31T13:51:24;19.50;91.20
70074;DHT22;57445;51.058;3.698;2022-10-31T13:53:59;19.70;91.00
70074;DHT22;57445;51.058;3.698;2022-10-31T13:56:34;19.80;90.70
70074;DHT22;57445;51.058;3.698;2022-10-31T13:59:16;19.80;90.80
70074;DHT22;57445;51.058;3.698;2022-10-31T14:01:48;19.90;90.80
70074;DHT22;57445;51.058;3.698;2022-10-31T14:04:19;19.50;91.00
70074;DHT22;57445;51.058;3.698;2022-10-31T14:06:57;19.60;91.30
70074;DHT22;57445;51.058;3.698;2022-10-31T14:09:29;19.60;91.20
70074;DHT22;57445;51.058;3.698;2022-10-31T14:12:03;19.50;91.40
70074;DHT22;57445;51.058;3.698;2022-10-31T14:14:43;19.70;91.20
70074;DHT22;57445;51.058;3.698;2022-10-31T14:17:20;19.90;90.90
70074;DHT22;57445;51.058;3.698;2022-10-31T14:20:02;19.80;91.00
70074;DHT22;57445;51.058;3.698;2022-10-31T14:22:31;19.50;91.60
70074;DHT22;57445;51.058;3.698;2022-10-31T14:24:59;19.50;91.80
70074;DHT22;57445;51.058;3.698;2022-10-31T14:27:44;19.40;91.70
70074;DHT22;57445;51.058;3.698;2022-10-31T14:30:18;19.40;91.90
70074;DHT22;57445;51.058;3.698;2022-10-31T14:33:00;19.60;91.70
70074;DHT22;57445;51.058;3.698;2022-10-31T14:35:37;19.80;91.50
70074;DHT22;57445;51.058;3.698;2022-10-31T14:38:29;19.80;91.40
70074;DHT22;57445;51.058;3.698;2022-10-31T14:41:18;19.80;91.40
70074;DHT22;57445;51.058;3.698;2022-10-31T14:47:06;19.70;91.70
70074;DHT22;57445;51.058;3.698;2022-10-31T14:49:55;19.60;91.90
70074;DHT22;57445;51.058;3.698;2022-10-31T14:52:28;19.70;91.80
70074;DHT22;57445;51.058;3.698;2022-10-31T14:54:57;19.50;91.90
70074;DHT22;57445;51.058;3.698;2022-10-31T14:57:29;19.60;92.10
70074;DHT22;57445;51.058;3.698;2022-10-31T15:00:03;19.70;92.00
70074;DHT22;57445;51.058;3.698;2022-10-31T15:02:36;19.60;92.10
70074;DHT22;57445;51.058;3.698;2022-10-31T15:05:08;19.70;91.90
70074;DHT22;57445;51.058;3.698;2022-10-31T15:07:36;19.40;92.30
70074;DHT22;57445;51.058;3.698;2022-10-31T15:10:20;19.30;92.40
70074;DHT22;57445;51.058;3.698;2022-10-31T15:12:49;19.30;92.60
70074;DHT22;57445;51.058;3.698;2022-10-31T15:15:20;19.00;93.00
70074;DHT22;57445;51.058;3.698;2022-10-31T15:17:51;18.90;93.30
70074;DHT22;57445;51.058;3.698;2022-10-31T15:20:21;18.90;93.40
70074;DHT22;57445;51.058;3.698;2022-10-31T15:22:57;18.80;93.60
70074;DHT22;57445;51.058;3.698;2022-10-31T15:25:27;18.80;93.60
70074;DHT22;57445;51.058;3.698;2022-10-31T15:27:56;18.60;94.00
70074;DHT22;57445;51.058;3.698;2022-10-31T15:30:32;18.60;94.10
70074;DHT22;57445;51.058;3.698;2022-10-31T15:33:00;18.60;94.20
70074;DHT22;57445;51.058;3.698;2022-10-31T15:35:29;18.60;94.10
70074;DHT22;57445;51.058;3.698;2022-10-31T15:38:01;18.60;94.10
70074;DHT22;57445;51.058;3.698;2022-10-31T15:40:31;18.70;94.10
70074;DHT22;57445;51.058;3.698;2022-10-31T15:43:01;18.70;94.20
70074;DHT22;57445;51.058;3.698;2022-10-31T15:45:35;18.70;94.00
70074;DHT22;57445;51.058;3.698;2022-10-31T15:48:15;18.70;94.10
70074;DHT22;57445;51.058;3.698;2022-10-31T15:50:50;18.70;94.10
70074;DHT22;57445;51.058;3.698;2022-10-31T15:53:22;18.60;94.20
70074;DHT22;57445;51.058;3.698;2022-10-31T15:55:53;18.50;94.30
70074;DHT22;57445;51.058;3.698;2022-10-31T15:58:22;18.20;94.80
70074;DHT22;57445;51.058;3.698;2022-10-31T16:01:00;18.20;95.00
70074;DHT22;57445;51.058;3.698;2022-10-31T16:03:29;18.10;95.20
70074;DHT22;57445;51.058;3.698;2022-10-31T16:06:03;18.20;95.00
70074;DHT22;57445;51.058;3.698;2022-10-31T16:08:37;18.20;95.10
70074;DHT22;57445;51.058;3.698;2022-10-31T16:11:23;18.20;95.00
70074;DHT22;57445;51.058;3.698;2022-10-31T16:13:54;18.30;94.70